EST,Max TemperatureF,Mean TemperatureF,Min TemperatureF,Max Dew PointF,MeanDew PointF,Min DewpointF,Max Humidity, Mean Humidity, Min Humidity, Max Sea Level PressureIn, Mean Sea Level PressureIn, Min Sea Level PressureIn, Max VisibilityMiles, Mean VisibilityMiles, Min VisibilityMiles, Max Wind SpeedMPH, Mean Wind SpeedMPH, Max Gust SpeedMPH,PrecipitationIn, CloudCover, Events, WindDirDegrees
2013-1-1,80,67,54,60,57,52,94,78,47,30.23,30.13,30.07,10,9,2,14,4,16,0.00,2,,165
2013-1-2,78,68,57,67,62,55,100,90,62,30.11,30.07,30.02,10,6,0,14,3,,0.01,2,Fog,211
2013-1-3,82,70,57,67,64,57,100,83,56,30.16,30.11,30.06,10,6,0,15,3,16,0.01,5,Fog,155
2013-1-4,70,66,62,65,62,59,100,88,78,30.28,30.20,30.14,10,8,2,12,8,,0.13,8,Rain,43
2013-1-5,80,70,60,66,61,57,100,84,58,30.30,30.25,30.18,10,8,2,12,8,,0.00,5,,56
2013-1-6,82,74,66,68,66,64,100,88,58,30.22,30.16,30.08,10,6,0,15,6,,0.00,5,Fog,63
2013-1-7,75,69,62,66,64,60,100,88,64,30.21,30.15,30.11,10,8,2,16,8,,0.01,7,,53
2013-1-8,84,72,61,69,65,59,100,85,54,30.23,30.17,30.13,10,8,1,9,6,,0.00,5,Rain,75
2013-1-9,87,76,66,72,67,62,100,82,43,30.30,30.24,30.19,10,8,2,15,8,20,0.01,3,,102
2013-1-10,84,76,66,68,64,58,93,71,41,30.31,30.27,30.21,10,10,8,16,9,24,0.00,2,,109
2013-1-11,84,72,60,68,63,60,100,83,43,30.29,30.22,30.15,10,7,0,14,7,18,0.00,2,Fog,91
2013-1-12,84,74,63,67,64,62,97,77,49,30.21,30.15,30.09,10,10,7,13,7,,0.01,2,,106
2013-1-13,84,74,63,67,63,61,97,77,47,30.17,30.12,30.09,10,10,8,10,5,,0.00,1,,132
2013-1-14,82,68,55,63,59,55,100,82,44,30.21,30.17,30.14,10,7,0,14,4,17,0.01,1,Fog,112
2013-1-15,82,70,57,66,60,55,100,81,50,30.17,30.13,30.08,10,7,0,12,4,17,0.01,2,Fog,99
2013-1-16,82,70,59,65,61,57,100,83,47,30.14,30.08,30.04,10,7,0,12,4,,0.00,1,,154
2013-1-17,79,69,59,69,59,48,100,87,60,30.17,30.08,30.03,10,6,0,24,4,33,0.01,3,Fog,297
2013-1-18,69,56,44,57,46,34,93,66,47,30.32,30.24,30.17,10,10,10,17,14,23,0.00,4,,25
2013-1-19,73,64,55,63,59,54,97,84,64,30.27,30.20,30.14,10,10,10,15,10,,0.00,6,,50
2013-1-20,79,69,59,63,62,57,100,85,56,30.19,30.13,30.06,10,6,0,9,4,,0.00,7,Fog,55
2013-1-21,75,68,61,64,61,55,90,77,62,30.13,30.08,30.03,10,10,10,14,6,,0.00,5,,339
2013-1-22,69,60,52,54,47,41,81,62,42,30.30,30.19,30.09,10,10,10,15,9,22,0.00,0,,19
2013-1-23,73,60,48,41,37,32,74,50,21,30.37,30.32,30.28,10,10,10,13,8,16,0.00,0,,25
2013-1-24,75,59,43,48,42,36,97,64,25,30.36,30.30,30.25,10,10,5,10,5,,0.00,0,,32
2013-1-25,75,60,46,53,47,45,100,73,37,30.34,30.28,30.22,10,7,0,12,4,,0.00,0,,7
2013-1-26,78,62,46,56,48,43,96,68,31,30.31,30.25,30.20,10,10,7,9,4,,0.00,0,,4
2013-1-27,81,64,48,59,51,46,100,80,29,30.32,30.28,30.23,10,5,0,13,6,18,0.01,0,Fog,59
2013-1-28,84,70,55,62,58,54,100,73,37,30.34,30.28,30.22,10,8,2,16,6,22,0.00,2,,96
2013-1-29,84,70,57,66,61,57,100,83,46,30.25,30.20,30.13,10,6,0,14,6,22,0.00,3,Fog,116
2013-1-30,82,73,64,67,64,62,93,79,54,30.13,30.05,29.99,10,10,10,21,10,30,0.00,1,,165
2013-1-31,72,60,48,68,52,33,96,73,31,30.25,30.11,29.96,10,8,3,22,12,29,0.28,4,Rain,346